createdAt,value
2018-06-30T00:00:57.514Z,95.12
2018-06-30T00:03:01.199Z,95.12
2018-06-30T00:04:01.654Z,94.93
2018-06-30T00:05:02.139Z,95.31
2018-06-30T00:06:01.790Z,95.03
2018-06-30T00:07:02.357Z,94.93
2018-06-30T00:08:01.817Z,95.03
2018-06-30T00:09:01.537Z,94.89
2018-06-30T00:10:02.056Z,94.69
2018-06-30T00:11:01.725Z,94.40
2018-06-30T00:12:02.118Z,94.31
2018-06-30T00:13:01.943Z,93.83
2018-06-30T00:14:01.258Z,93.93
2018-06-30T00:15:22.887Z,93.83
2018-06-30T00:16:23.433Z,93.35
2018-06-30T00:17:23.006Z,93.63
2018-06-30T00:18:45.415Z,93.06
2018-06-30T00:19:44.942Z,93.16
2018-06-30T00:20:45.528Z,93.44
2018-06-30T00:21:44.973Z,92.97
2018-06-30T00:22:45.434Z,93.35
2018-06-30T00:23:45.162Z,93.06
2018-06-30T00:24:45.804Z,92.77
2018-06-30T00:25:45.347Z,92.97
2018-06-30T00:28:31.954Z,92.39
2018-06-30T00:29:32.364Z,92.20
2018-06-30T00:30:31.968Z,92.20
2018-06-30T00:31:32.884Z,92.01
2018-06-30T00:32:32.680Z,92.10
2018-06-30T00:33:53.538Z,92.10
2018-06-30T00:34:54.026Z,92.20
2018-06-30T00:35:53.895Z,91.72
2018-06-30T00:36:53.630Z,92.01
2018-06-30T00:37:54.249Z,92.39
2018-06-30T00:38:53.591Z,92.39
2018-06-30T00:39:54.369Z,92.49
2018-06-30T00:40:53.857Z,92.49
2018-06-30T00:41:53.948Z,92.49
2018-06-30T00:42:53.522Z,92.39
2018-06-30T00:43:54.106Z,92.77
2018-06-30T00:44:53.489Z,92.68
2018-06-30T00:45:54.235Z,92.39
2018-06-30T00:46:53.798Z,92.68
2018-06-30T00:47:53.895Z,92.87
2018-06-30T00:48:53.543Z,92.77
2018-06-30T00:49:54.098Z,92.87
2018-06-30T00:50:54.385Z,92.97
2018-06-30T00:51:54.156Z,92.97
2018-06-30T00:52:53.671Z,92.77
2018-06-30T00:53:54.329Z,92.87
2018-06-30T00:54:53.804Z,92.68
2018-06-30T00:55:53.299Z,92.87
2018-06-30T00:56:53.776Z,92.77
2018-06-30T00:57:54.120Z,92.87
2018-06-30T00:58:53.787Z,92.87
2018-06-30T00:59:53.355Z,92.77
2018-06-30T01:00:53.815Z,92.68
2018-06-30T01:01:53.329Z,92.77
2018-06-30T01:02:53.787Z,92.77
2018-06-30T01:03:53.472Z,92.68
2018-06-30T01:04:53.827Z,92.39
2018-06-30T01:05:53.408Z,92.39
2018-06-30T01:06:54.043Z,92.10
2018-06-30T01:07:53.627Z,92.39
2018-06-30T01:08:54.230Z,92.20
2018-06-30T01:09:53.635Z,92.39
2018-06-30T01:11:17.303Z,92.49
2018-06-30T01:12:38.892Z,92.30
2018-06-30T01:13:39.216Z,92.10
2018-06-30T01:15:01.047Z,92.20
2018-06-30T01:16:01.464Z,92.30
2018-06-30T01:17:23.239Z,92.20
2018-06-30T01:18:23.875Z,91.86
2018-06-30T01:19:23.313Z,91.77
2018-06-30T01:20:23.701Z,91.96
2018-06-30T01:21:24.124Z,91.77
2018-06-30T01:22:23.714Z,91.77
2018-06-30T01:23:23.239Z,91.86
2018-06-30T01:24:23.579Z,91.67
2018-06-30T01:25:23.900Z,91.67
2018-06-30T01:26:23.302Z,91.58
2018-06-30T01:27:23.818Z,91.49
2018-06-30T01:28:23.265Z,91.67
2018-06-30T01:29:24.182Z,91.58
2018-06-30T01:30:23.497Z,91.67
2018-06-30T01:31:23.960Z,91.49
2018-06-30T01:32:23.636Z,91.29
2018-06-30T01:33:24.526Z,91.39
2018-06-30T01:34:24.281Z,91.10
2018-06-30T01:35:23.680Z,91.10
2018-06-30T01:36:23.094Z,91.00
2018-06-30T01:37:23.806Z,91.19
2018-06-30T01:38:23.464Z,90.91
2018-06-30T01:39:23.967Z,90.81
2018-06-30T01:40:23.220Z,91.19
2018-06-30T01:41:23.521Z,91.10
2018-06-30T01:42:23.935Z,90.72
2018-06-30T01:43:23.420Z,90.43
2018-06-30T01:44:23.884Z,90.81
2018-06-30T01:45:23.325Z,90.81
2018-06-30T01:46:23.600Z,90.72
2018-06-30T01:47:23.874Z,90.72
2018-06-30T01:48:23.267Z,90.62
2018-06-30T01:49:44.717Z,90.23
2018-06-30T01:50:45.154Z,90.00
2018-06-30T01:51:45.772Z,90.00
2018-06-30T01:52:45.328Z,89.72
2018-06-30T01:53:45.521Z,89.62
2018-06-30T01:54:45.093Z,89.52
2018-06-30T01:56:07.331Z,89.23
2018-06-30T01:57:07.865Z,89.14
2018-06-30T01:58:07.226Z,88.95
2018-06-30T01:59:07.685Z,88.76
2018-06-30T02:00:08.181Z,88.56
2018-06-30T02:01:07.475Z,88.56
2018-06-30T02:02:29.143Z,88.76
2018-06-30T02:03:29.455Z,88.76
2018-06-30T02:04:29.865Z,88.56
2018-06-30T02:05:29.296Z,88.37
2018-06-30T02:06:29.780Z,88.37
2018-06-30T02:07:29.946Z,88.66
2018-06-30T02:08:29.382Z,88.56
2018-06-30T02:09:30.005Z,88.18
2018-06-30T02:10:29.540Z,88.09
2018-06-30T02:11:30.197Z,88.09
2018-06-30T02:12:29.391Z,87.99
2018-06-30T02:13:29.938Z,87.90
2018-06-30T02:14:29.491Z,88.18
2018-06-30T02:15:29.796Z,87.90
2018-06-30T02:16:29.272Z,88.18
2018-06-30T02:17:29.516Z,88.28
2018-06-30T02:18:29.891Z,88.18
2018-06-30T02:19:29.477Z,87.90
2018-06-30T02:20:29.841Z,88.18
2018-06-30T02:21:30.125Z,87.99
2018-06-30T02:22:29.433Z,87.90
2018-06-30T02:23:29.768Z,87.90
2018-06-30T02:24:29.086Z,87.90
2018-06-30T02:25:29.640Z,88.09
2018-06-30T02:26:29.933Z,87.99
2018-06-30T02:27:29.114Z,88.09
2018-06-30T02:28:29.493Z,88.28
2018-06-30T02:29:50.898Z,88.28
2018-06-30T02:30:51.228Z,88.47
2018-06-30T02:31:51.731Z,88.37
2018-06-30T02:32:51.256Z,88.56
2018-06-30T02:33:51.753Z,88.47
2018-06-30T02:34:51.353Z,88.56
2018-06-30T02:35:51.581Z,88.47
2018-06-30T02:36:50.988Z,88.56
2018-06-30T02:37:51.307Z,88.62
2018-06-30T02:38:51.711Z,88.85
2018-06-30T02:39:51.170Z,88.85
2018-06-30T02:40:51.453Z,89.14
2018-06-30T02:41:51.029Z,89.23
2018-06-30T02:42:51.632Z,89.23
2018-06-30T02:44:35.361Z,89.09
2018-06-30T02:45:35.646Z,88.90
2018-06-30T02:46:36.188Z,89.09
2018-06-30T02:47:58.912Z,88.52
2018-06-30T02:48:59.189Z,88.90
2018-06-30T02:49:59.627Z,88.52
2018-06-30T02:50:59.019Z,88.81
2018-06-30T02:52:20.537Z,88.81
2018-06-30T02:53:20.849Z,88.43
2018-06-30T02:54:21.358Z,88.62
2018-06-30T02:55:20.600Z,88.71
2018-06-30T02:56:42.601Z,88.52
2018-06-30T02:57:43.133Z,88.62
2018-06-30T02:58:42.773Z,88.71
2018-06-30T02:59:43.496Z,88.81
2018-06-30T03:01:05.427Z,88.62
2018-06-30T03:02:04.957Z,88.43
2018-06-30T03:03:05.210Z,88.52
2018-06-30T03:04:04.707Z,88.23
2018-06-30T03:05:05.053Z,88.62
2018-06-30T03:06:04.407Z,88.23
2018-06-30T03:07:28.300Z,88.43
2018-06-30T03:08:28.878Z,88.23
2018-06-30T03:09:28.339Z,88.43
2018-06-30T03:10:28.846Z,88.52
2018-06-30T03:11:28.237Z,88.23
2018-06-30T03:12:28.610Z,88.04
2018-06-30T03:13:29.291Z,87.85
2018-06-30T03:14:28.733Z,87.85
2018-06-30T03:15:28.113Z,87.33
2018-06-30T03:16:28.329Z,87.33
2018-06-30T03:17:28.789Z,87.33
2018-06-30T03:18:28.324Z,87.52
2018-06-30T03:19:28.769Z,87.14
2018-06-30T03:20:28.089Z,87.33
2018-06-30T03:21:28.511Z,87.43
2018-06-30T03:22:52.191Z,87.33
2018-06-30T03:24:13.902Z,87.14
2018-06-30T03:25:14.295Z,86.94
2018-06-30T03:26:35.260Z,86.85
2018-06-30T03:29:05.368Z,86.94
2018-06-30T03:30:05.786Z,86.94
2018-06-30T03:31:05.270Z,86.85
2018-06-30T03:32:05.749Z,86.76
2018-06-30T03:33:05.294Z,86.76
2018-06-30T03:34:05.727Z,86.57
2018-06-30T03:35:05.131Z,86.94
2018-06-30T03:36:05.639Z,87.04
2018-06-30T03:37:05.198Z,87.14
2018-06-30T03:38:05.515Z,87.23
2018-06-30T03:39:05.853Z,87.23
2018-06-30T03:40:05.289Z,87.23
2018-06-30T03:41:05.662Z,87.23
2018-06-30T03:42:28.174Z,87.14
2018-06-30T03:43:28.597Z,86.94
2018-06-30T03:44:28.162Z,87.04
2018-06-30T03:45:28.545Z,87.23
2018-06-30T03:46:29.007Z,87.62
2018-06-30T03:47:28.352Z,87.52
2018-06-30T03:48:28.730Z,87.90
2018-06-30T03:49:28.195Z,87.81
2018-06-30T03:50:28.776Z,88.00
2018-06-30T03:51:28.405Z,88.00
2018-06-30T03:52:28.963Z,88.00
2018-06-30T03:53:28.586Z,88.29
2018-06-30T03:54:29.268Z,88.38
2018-06-30T03:55:28.789Z,88.48
2018-06-30T03:56:28.162Z,88.48
2018-06-30T03:57:29.152Z,88.86
2018-06-30T03:58:28.744Z,88.38
2018-06-30T03:59:29.126Z,89.05
2018-06-30T04:00:28.707Z,89.15
2018-06-30T04:01:28.195Z,89.43
2018-06-30T04:02:28.798Z,89.62
2018-06-30T04:03:28.203Z,89.91
2018-06-30T04:04:28.646Z,89.81
2018-06-30T04:05:29.091Z,89.81
2018-06-30T04:06:28.679Z,90.01
2018-06-30T04:07:28.465Z,89.91
2018-06-30T04:08:29.042Z,90.39
2018-06-30T04:09:28.466Z,90.20
2018-06-30T04:10:28.765Z,90.58
2018-06-30T04:11:28.173Z,90.48
2018-06-30T04:12:28.695Z,90.67
2018-06-30T04:13:50.630Z,91.16
2018-06-30T04:14:51.379Z,90.96
2018-06-30T04:15:50.884Z,91.06
2018-06-30T04:16:51.432Z,91.16
2018-06-30T04:17:50.893Z,90.96
2018-06-30T04:18:51.613Z,91.35
2018-06-30T04:19:50.967Z,92.21
2018-06-30T04:20:51.442Z,92.40
2018-06-30T04:21:50.871Z,92.49
2018-06-30T04:23:12.538Z,92.59
2018-06-30T04:24:55.771Z,92.88
2018-06-30T04:25:56.198Z,93.16
2018-06-30T04:26:56.528Z,92.97
2018-06-30T04:27:56.023Z,93.45
2018-06-30T04:28:56.523Z,93.35
2018-06-30T04:29:55.998Z,93.35
2018-06-30T04:30:56.665Z,93.55
2018-06-30T04:31:56.218Z,93.74
2018-06-30T04:32:55.943Z,94.21
2018-06-30T04:33:56.321Z,94.31
2018-06-30T04:34:56.685Z,94.79
2018-06-30T04:35:56.125Z,94.98
2018-06-30T04:36:58.111Z,95.79
2018-06-30T04:37:56.552Z,95.41
2018-06-30T04:38:56.141Z,96.18
2018-06-30T04:39:56.818Z,96.56
2018-06-30T04:40:58.020Z,96.94
2018-06-30T04:42:19.660Z,96.94
2018-06-30T04:43:20.191Z,97.52
2018-06-30T04:44:20.576Z,97.80
2018-06-30T04:45:20.013Z,97.80
2018-06-30T04:46:20.453Z,98.09
2018-06-30T04:47:19.967Z,98.47
2018-06-30T04:48:20.582Z,98.28
2018-06-30T04:49:20.727Z,98.95
2018-06-30T04:50:20.375Z,99.33
2018-06-30T04:51:19.995Z,99.10
2018-06-30T04:52:20.578Z,99.00
2018-06-30T04:53:20.187Z,99.77
2018-06-30T04:54:20.660Z,99.77
2018-06-30T04:55:20.363Z,99.99
2018-06-30T04:56:19.727Z,99.96
2018-06-30T04:57:20.397Z,99.99
2018-06-30T04:58:19.854Z,99.99
2018-06-30T04:59:20.174Z,99.99
2018-06-30T05:00:40.937Z,99.99
2018-06-30T05:02:03.028Z,99.99
2018-06-30T05:03:03.573Z,99.99
2018-06-30T05:04:02.927Z,99.99
2018-06-30T05:05:25.101Z,99.99
2018-06-30T05:06:25.671Z,99.99
2018-06-30T05:07:25.275Z,99.99
2018-06-30T05:08:25.778Z,99.99
2018-06-30T05:09:25.475Z,99.99
2018-06-30T05:10:25.251Z,99.99
2018-06-30T05:11:25.895Z,99.99
2018-06-30T05:12:25.691Z,99.99
2018-06-30T05:13:25.744Z,99.99
2018-06-30T05:14:25.382Z,99.99
2018-06-30T05:15:31.888Z,99.99
2018-06-30T05:16:31.358Z,99.99
2018-06-30T05:17:25.749Z,99.99
2018-06-30T05:18:25.237Z,99.99
2018-06-30T05:19:25.680Z,99.99
2018-06-30T05:20:25.137Z,99.99
2018-06-30T05:22:33.699Z,99.99
2018-06-30T05:23:57.331Z,99.99
2018-06-30T05:24:57.678Z,99.87
2018-06-30T05:26:34.662Z,99.99
2018-06-30T05:27:36.360Z,99.63
2018-06-30T05:28:31.715Z,99.53
2018-06-30T05:29:33.522Z,98.96
2018-06-30T05:30:30.879Z,98.96
2018-06-30T05:31:53.299Z,98.28
2018-06-30T05:32:52.868Z,97.76
2018-06-30T05:33:52.539Z,97.33
2018-06-30T05:34:53.606Z,97.14
2018-06-30T05:35:54.294Z,97.42
2018-06-30T05:37:14.532Z,96.42
2018-06-30T05:38:15.244Z,96.70
2018-06-30T05:39:16.040Z,96.51
2018-06-30T05:40:36.246Z,96.22
2018-06-30T05:41:36.827Z,95.36
2018-06-30T05:42:36.974Z,95.07
2018-06-30T05:43:36.486Z,95.12
2018-06-30T05:44:37.274Z,94.83
2018-06-30T05:45:58.644Z,94.07
2018-06-30T05:46:59.544Z,93.01
2018-06-30T05:47:59.542Z,92.72
2018-06-30T05:49:20.624Z,94.31
2018-06-30T05:50:21.837Z,92.57
2018-06-30T05:51:20.721Z,94.40
2018-06-30T05:52:21.597Z,92.62
2018-06-30T05:53:21.445Z,89.74
2018-06-30T05:54:21.427Z,88.87
2018-06-30T05:55:23.461Z,87.34
2018-06-30T05:56:21.298Z,86.66
2018-06-30T05:57:20.973Z,85.03
2018-06-30T05:58:20.778Z,85.32
2018-06-30T05:59:21.490Z,84.88
2018-06-30T06:00:21.250Z,83.83
2018-06-30T06:01:21.202Z,83.25
2018-06-30T06:02:20.874Z,82.19
2018-06-30T06:03:20.455Z,81.13
2018-06-30T06:04:21.256Z,81.42
2018-06-30T06:05:20.889Z,79.50
2018-06-30T06:06:20.598Z,79.35
2018-06-30T06:07:21.381Z,78.67
2018-06-30T06:08:21.083Z,77.90
2018-06-30T06:09:20.905Z,78.00
2018-06-30T06:10:20.538Z,78.28
2018-06-30T06:11:21.045Z,77.42
2018-06-30T06:12:20.830Z,74.92
2018-06-30T06:13:20.540Z,75.31
2018-06-30T06:14:44.525Z,75.54
2018-06-30T06:15:45.010Z,74.19
2018-06-30T06:16:44.693Z,73.90
2018-06-30T06:18:06.956Z,72.55
2018-06-30T06:19:07.616Z,72.36
2018-06-30T06:20:07.496Z,71.40
2018-06-30T06:21:06.915Z,71.87
2018-06-30T06:22:07.862Z,70.56
2018-06-30T06:23:07.255Z,69.79
2018-06-30T06:24:07.146Z,69.70
2018-06-30T06:25:06.732Z,69.15
2018-06-30T06:26:07.369Z,68.38
2018-06-30T06:27:07.306Z,67.19
2018-06-30T06:28:07.230Z,66.75
2018-06-30T06:29:08.411Z,67.23
2018-06-30T06:30:07.304Z,67.13
2018-06-30T06:31:07.081Z,66.78
2018-06-30T06:32:07.937Z,66.01
2018-06-30T06:33:07.873Z,66.20
2018-06-30T06:34:07.479Z,65.33
2018-06-30T06:35:07.084Z,65.27
2018-06-30T06:36:07.482Z,64.89
2018-06-30T06:37:52.549Z,64.40
2018-06-30T06:39:16.449Z,64.02
2018-06-30T06:40:16.904Z,63.57
2018-06-30T06:41:40.188Z,62.31
2018-06-30T06:42:40.181Z,62.60
2018-06-30T06:43:40.944Z,63.40
2018-06-30T06:44:40.537Z,62.44
2018-06-30T06:45:40.062Z,62.63
2018-06-30T06:46:40.805Z,62.05
2018-06-30T06:47:40.505Z,61.02
2018-06-30T06:49:01.966Z,60.35
2018-06-30T06:50:02.968Z,59.86
2018-06-30T06:51:03.138Z,59.96
2018-06-30T06:52:26.336Z,60.16
2018-06-30T06:53:26.792Z,59.67
2018-06-30T06:54:26.542Z,59.38
2018-06-30T06:55:27.461Z,58.42
2018-06-30T06:56:27.638Z,58.22
2018-06-30T06:57:26.782Z,57.96
2018-06-30T06:58:26.693Z,57.45
2018-06-30T06:59:26.700Z,57.35
2018-06-30T07:00:26.156Z,57.57
2018-06-30T07:01:27.214Z,57.29
2018-06-30T07:02:27.273Z,57.19
2018-06-30T07:03:26.750Z,56.99
2018-06-30T07:04:26.297Z,56.63
2018-06-30T07:05:27.005Z,56.05
2018-06-30T07:06:27.086Z,55.60
2018-06-30T07:07:27.343Z,55.31
2018-06-30T07:08:49.612Z,54.63
2018-06-30T07:09:49.293Z,54.80
2018-06-30T07:10:50.686Z,54.80
2018-06-30T07:11:49.595Z,55.02
2018-06-30T07:12:49.488Z,54.35
2018-06-30T07:13:49.504Z,54.53
2018-06-30T07:14:49.703Z,54.37
2018-06-30T07:16:37.349Z,54.98
2018-06-30T07:18:01.331Z,52.75
2018-06-30T07:19:23.604Z,52.56
2018-06-30T07:20:23.996Z,52.56
2018-06-30T07:21:27.106Z,52.85
2018-06-30T07:22:25.047Z,52.36
2018-06-30T07:23:24.760Z,52.56
2018-06-30T07:24:48.705Z,52.00
2018-06-30T07:25:48.924Z,51.93
2018-06-30T07:26:48.781Z,52.06
2018-06-30T07:27:49.252Z,50.31
2018-06-30T07:28:48.027Z,50.99
2018-06-30T07:29:48.572Z,50.79
2018-06-30T07:31:12.333Z,49.63
2018-06-30T07:32:12.436Z,49.44
2018-06-30T07:33:33.736Z,49.80
2018-06-30T07:34:35.229Z,50.09
2018-06-30T07:35:34.614Z,49.82
2018-06-30T07:36:34.890Z,49.63
2018-06-30T07:37:57.436Z,49.56
2018-06-30T07:38:58.238Z,49.27
2018-06-30T07:39:58.170Z,48.80
2018-06-30T07:40:57.837Z,47.81
2018-06-30T07:41:58.648Z,48.00
2018-06-30T07:42:58.522Z,48.44
2018-06-30T07:43:58.307Z,49.90
2018-06-30T07:44:58.638Z,50.50
2018-06-30T07:45:57.842Z,50.07
2018-06-30T07:46:58.607Z,48.42
2018-06-30T07:47:57.344Z,48.22
2018-06-30T07:48:58.081Z,48.03
2018-06-30T07:49:58.191Z,47.79
2018-06-30T07:50:57.801Z,48.47
2018-06-30T07:51:58.368Z,48.88
2018-06-30T07:52:58.029Z,48.32
2018-06-30T07:54:20.840Z,47.55
2018-06-30T07:55:20.946Z,48.13
2018-06-30T07:56:20.574Z,47.86
2018-06-30T07:57:21.233Z,47.18
2018-06-30T07:58:21.407Z,46.79
2018-06-30T07:59:21.342Z,47.01
2018-06-30T08:00:21.248Z,46.42
2018-06-30T08:01:20.736Z,46.74
2018-06-30T08:02:44.305Z,46.14
2018-06-30T08:03:44.299Z,46.33
2018-06-30T08:04:44.292Z,46.72
2018-06-30T08:05:44.399Z,46.45
2018-06-30T08:06:43.759Z,46.15
2018-06-30T08:07:44.622Z,45.77
2018-06-30T08:08:44.208Z,46.11
2018-06-30T08:09:44.896Z,45.94
2018-06-30T08:10:45.389Z,45.25
2018-06-30T08:11:44.577Z,44.38
2018-06-30T08:12:45.830Z,44.59
2018-06-30T08:14:06.876Z,43.62
2018-06-30T08:15:08.667Z,41.96
2018-06-30T08:16:07.720Z,40.42
2018-06-30T08:17:07.484Z,39.75
2018-06-30T08:18:08.991Z,40.72
2018-06-30T08:19:07.783Z,42.08
2018-06-30T08:20:31.227Z,42.25
2018-06-30T08:22:15.333Z,42.08
2018-06-30T08:23:16.055Z,42.45
2018-06-30T08:24:16.120Z,42.66
2018-06-30T08:26:17.209Z,42.08
2018-06-30T08:27:13.357Z,42.47
2018-06-30T08:28:44.155Z,42.16
2018-06-30T08:29:39.756Z,42.96
2018-06-30T08:30:40.013Z,42.66
2018-06-30T08:31:39.476Z,42.96
2018-06-30T08:32:39.972Z,43.08
2018-06-30T08:33:40.294Z,42.10
2018-06-30T08:34:39.960Z,41.63
2018-06-30T08:35:40.194Z,41.36
2018-06-30T08:37:02.574Z,39.98
2018-06-30T08:38:02.761Z,40.25
2018-06-30T08:39:03.196Z,40.52
2018-06-30T08:40:03.644Z,40.72
2018-06-30T08:41:02.696Z,40.91
2018-06-30T08:42:02.581Z,40.99
2018-06-30T08:43:02.141Z,41.06
2018-06-30T08:44:03.498Z,41.57
2018-06-30T08:45:46.270Z,41.11
2018-06-30T08:47:08.291Z,40.23
2018-06-30T08:48:08.093Z,39.94
2018-06-30T08:49:09.175Z,40.11
2018-06-30T08:50:07.877Z,40.11
2018-06-30T08:51:08.618Z,40.31
2018-06-30T08:52:08.176Z,40.48
2018-06-30T08:53:08.343Z,40.29
2018-06-30T08:54:08.962Z,39.80
2018-06-30T08:55:08.954Z,40.52
2018-06-30T08:56:09.014Z,39.06
2018-06-30T08:57:08.780Z,39.08
2018-06-30T08:58:30.005Z,38.69
2018-06-30T08:59:30.598Z,39.10
2018-06-30T09:00:30.259Z,39.20
2018-06-30T09:01:32.039Z,38.71
2018-06-30T09:02:30.850Z,38.12
2018-06-30T09:03:30.666Z,38.30
2018-06-30T09:04:52.220Z,38.73
2018-06-30T09:06:14.339Z,38.63
2018-06-30T09:07:15.125Z,38.73
2018-06-30T09:08:15.049Z,38.53
2018-06-30T09:09:15.021Z,38.04
2018-06-30T09:10:14.648Z,38.51
2018-06-30T09:11:14.693Z,38.73
2018-06-30T09:12:14.464Z,38.26
2018-06-30T09:13:15.285Z,37.70
2018-06-30T09:14:36.592Z,35.94
2018-06-30T09:15:37.182Z,36.21
2018-06-30T09:16:37.056Z,36.43
2018-06-30T09:17:37.785Z,36.34
2018-06-30T09:18:37.553Z,36.07
2018-06-30T09:20:00.936Z,35.52
2018-06-30T09:21:00.465Z,32.46
2018-06-30T09:22:01.319Z,32.26
2018-06-30T09:23:00.969Z,31.65
2018-06-30T09:24:00.966Z,31.75
2018-06-30T09:25:00.815Z,31.85
2018-06-30T09:26:01.451Z,31.15
2018-06-30T09:27:46.682Z,31.75
2018-06-30T09:28:46.866Z,30.97
2018-06-30T09:29:46.645Z,30.47
2018-06-30T09:31:07.992Z,30.57
2018-06-30T09:32:08.995Z,30.26
2018-06-30T09:33:09.032Z,29.96
2018-06-30T09:34:08.829Z,29.46
2018-06-30T09:35:08.806Z,29.54
2018-06-30T09:36:08.510Z,30.31
2018-06-30T09:38:17.078Z,30.15
2018-06-30T09:39:38.308Z,28.69
2018-06-30T09:40:39.130Z,27.81
2018-06-30T09:41:39.499Z,27.52
2018-06-30T09:42:38.527Z,28.32
2018-06-30T09:43:38.205Z,28.50
2018-06-30T09:44:39.432Z,29.57
2018-06-30T09:46:02.319Z,29.77
2018-06-30T09:47:03.132Z,31.13
2018-06-30T09:48:02.703Z,31.84
2018-06-30T09:49:02.474Z,30.47
2018-06-30T09:50:04.145Z,30.08
2018-06-30T09:51:03.833Z,30.57
2018-06-30T09:52:08.400Z,30.27
2018-06-30T09:53:29.124Z,30.98
2018-06-30T09:54:27.021Z,30.48
2018-06-30T09:55:26.770Z,31.04
2018-06-30T09:56:27.539Z,31.31
2018-06-30T09:57:27.744Z,31.17
2018-06-30T09:58:28.769Z,30.88
2018-06-30T10:00:11.884Z,31.09
2018-06-30T10:01:36.067Z,31.22
2018-06-30T10:03:00.520Z,32.23
2018-06-30T10:04:00.766Z,32.53
2018-06-30T10:05:04.978Z,31.08
2018-06-30T10:06:00.947Z,30.49
2018-06-30T10:07:25.117Z,30.62
2018-06-30T10:08:24.795Z,31.41
2018-06-30T10:09:24.612Z,31.99
2018-06-30T10:10:25.344Z,32.78
2018-06-30T10:11:25.496Z,32.32
2018-06-30T10:12:25.169Z,31.83
2018-06-30T10:13:25.400Z,31.45
2018-06-30T10:14:24.982Z,30.77
2018-06-30T10:15:24.968Z,31.27
2018-06-30T10:16:24.619Z,31.27
2018-06-30T10:17:24.448Z,30.98
2018-06-30T10:18:27.283Z,31.07
2018-06-30T10:19:24.968Z,31.68
2018-06-30T10:20:28.777Z,31.37
2018-06-30T10:21:25.564Z,31.37
2018-06-30T10:22:24.236Z,30.50
2018-06-30T10:23:25.888Z,30.27
2018-06-30T10:24:24.487Z,30.49
2018-06-30T10:25:26.779Z,30.40
2018-06-30T10:26:25.692Z,30.39
2018-06-30T10:27:25.031Z,30.29
2018-06-30T10:28:28.304Z,30.49
2018-06-30T10:29:25.240Z,30.50
2018-06-30T10:30:25.247Z,30.19
2018-06-30T10:31:30.752Z,30.29
2018-06-30T10:32:27.937Z,30.19
2018-06-30T10:33:26.731Z,30.00
2018-06-30T10:34:24.700Z,30.49
2018-06-30T10:35:24.707Z,30.58
2018-06-30T10:36:24.576Z,30.37
2018-06-30T10:37:46.021Z,30.16
2018-06-30T10:38:46.501Z,30.25
2018-06-30T10:39:50.006Z,30.77
2018-06-30T10:40:46.519Z,30.65
2018-06-30T10:42:30.383Z,30.41
2018-06-30T10:44:38.871Z,30.85
2018-06-30T10:45:39.665Z,30.57
2018-06-30T10:46:39.777Z,30.57
2018-06-30T10:47:39.935Z,30.78
2018-06-30T10:48:39.715Z,30.68
2018-06-30T10:49:39.456Z,30.52
2018-06-30T10:50:39.173Z,29.34
2018-06-30T10:51:39.777Z,28.65
2018-06-30T10:52:39.459Z,28.64
2018-06-30T10:54:26.133Z,28.74
2018-06-30T10:55:27.066Z,28.92
2018-06-30T10:56:26.781Z,29.08
2018-06-30T10:57:26.741Z,29.80
2018-06-30T10:58:26.430Z,29.52
2018-06-30T10:59:26.854Z,28.92
2018-06-30T11:00:26.968Z,28.71
2018-06-30T11:01:26.737Z,28.81
2018-06-30T11:02:26.459Z,29.20
2018-06-30T11:03:27.196Z,28.68
2018-06-30T11:04:27.116Z,30.23
2018-06-30T11:05:26.916Z,30.43
2018-06-30T11:06:26.789Z,29.95
2018-06-30T11:07:26.342Z,29.97
2018-06-30T11:08:26.776Z,29.49
2018-06-30T11:09:26.452Z,29.97
2018-06-30T11:10:27.057Z,30.05
2018-06-30T11:11:27.772Z,30.26
2018-06-30T11:12:28.188Z,29.68
2018-06-30T11:13:48.170Z,28.99
2018-06-30T11:14:48.604Z,29.80
2018-06-30T11:15:48.089Z,28.45
2018-06-30T11:16:48.509Z,27.75
2018-06-30T11:17:47.946Z,28.03
2018-06-30T11:18:48.396Z,27.84
2018-06-30T11:19:48.872Z,28.12
2018-06-30T11:20:48.959Z,28.59
2018-06-30T11:21:48.672Z,28.81
2018-06-30T11:22:48.538Z,28.72
2018-06-30T11:23:52.273Z,27.87
2018-06-30T11:24:49.039Z,27.77
2018-06-30T11:25:49.497Z,28.13
2018-06-30T11:26:48.794Z,28.02
2018-06-30T11:27:48.494Z,28.20
2018-06-30T11:28:47.896Z,29.00
2018-06-30T11:29:49.652Z,28.33
2018-06-30T11:30:48.389Z,28.13
2018-06-30T11:31:47.990Z,28.61
2018-06-30T11:32:48.741Z,28.40
2018-06-30T11:33:49.100Z,28.89
2018-06-30T11:34:48.739Z,28.93
2018-06-30T11:35:48.473Z,27.36
2018-06-30T11:36:48.816Z,27.35
2018-06-30T11:37:48.213Z,28.31
2018-06-30T11:38:49.011Z,28.33
2018-06-30T11:39:49.085Z,28.11
2018-06-30T11:40:49.073Z,28.39
2018-06-30T11:41:49.139Z,28.47
2018-06-30T11:42:49.212Z,28.96
2018-06-30T11:43:49.011Z,28.86
2018-06-30T11:44:49.339Z,28.97
2018-06-30T11:45:49.032Z,28.58
2018-06-30T11:46:48.969Z,28.99
2018-06-30T11:47:48.640Z,28.82
2018-06-30T11:48:48.198Z,27.84
2018-06-30T11:49:52.356Z,28.01
2018-06-30T11:50:49.199Z,28.11
2018-06-30T11:52:31.063Z,28.69
2018-06-30T11:53:54.157Z,28.02
2018-06-30T11:54:55.073Z,28.50
2018-06-30T11:55:54.687Z,28.40
2018-06-30T11:56:54.755Z,28.20
2018-06-30T11:57:55.789Z,27.52
2018-06-30T11:58:54.427Z,27.81
2018-06-30T11:59:58.200Z,28.31
2018-06-30T12:00:55.504Z,28.02
2018-06-30T12:02:19.389Z,27.52
2018-06-30T12:03:20.462Z,27.62
2018-06-30T12:04:41.158Z,27.94
2018-06-30T12:05:42.067Z,27.45
2018-06-30T12:06:41.685Z,27.25
2018-06-30T12:07:43.432Z,27.06
2018-06-30T12:08:42.335Z,26.67
2018-06-30T12:09:42.053Z,26.35
2018-06-30T12:10:42.033Z,26.53
2018-06-30T12:11:46.347Z,27.21
2018-06-30T12:12:42.537Z,27.72
2018-06-30T12:13:41.203Z,27.20
2018-06-30T12:14:42.730Z,27.88
2018-06-30T12:15:42.670Z,28.00
2018-06-30T12:16:41.585Z,27.62
2018-06-30T12:17:41.247Z,27.78
2018-06-30T12:18:44.013Z,28.49
2018-06-30T12:19:41.732Z,28.91
2018-06-30T12:20:41.563Z,26.84
2018-06-30T12:21:41.490Z,26.75
2018-06-30T12:22:42.851Z,26.84
2018-06-30T12:23:41.770Z,26.93
2018-06-30T12:24:42.335Z,27.33
2018-06-30T12:25:45.355Z,27.61
2018-06-30T12:26:41.898Z,28.45
2018-06-30T12:27:41.867Z,28.65
2018-06-30T12:28:42.410Z,29.22
2018-06-30T12:29:42.588Z,29.25
2018-06-30T12:31:03.120Z,28.29
2018-06-30T12:32:04.803Z,28.97
2018-06-30T12:33:05.151Z,28.29
2018-06-30T12:34:03.808Z,28.29
2018-06-30T12:35:03.684Z,28.19
2018-06-30T12:36:03.067Z,28.58
2018-06-30T12:37:27.533Z,28.78
2018-06-30T12:38:28.211Z,29.68
2018-06-30T12:39:28.438Z,28.88
2018-06-30T12:40:28.093Z,29.64
2018-06-30T12:41:27.877Z,29.85
2018-06-30T12:42:27.564Z,29.64
2018-06-30T12:43:28.049Z,30.13
2018-06-30T12:44:27.838Z,30.02
2018-06-30T12:45:28.361Z,30.12
2018-06-30T12:46:27.760Z,30.00
2018-06-30T12:47:28.756Z,30.49
2018-06-30T12:48:29.319Z,30.41
2018-06-30T12:49:28.226Z,29.53
2018-06-30T12:50:28.089Z,29.35
2018-06-30T12:51:27.997Z,28.75
2018-06-30T12:52:51.329Z,28.77
2018-06-30T12:53:51.896Z,28.96
2018-06-30T12:54:51.512Z,29.44
2018-06-30T12:55:52.682Z,29.81
2018-06-30T12:56:51.319Z,30.02
2018-06-30T12:58:15.925Z,30.15
2018-06-30T12:59:16.546Z,29.77
2018-06-30T13:00:16.503Z,29.08
2018-06-30T13:01:16.448Z,28.99
2018-06-30T13:02:16.210Z,29.30
2018-06-30T13:03:16.287Z,27.90
2018-06-30T13:04:16.088Z,28.29
2018-06-30T13:05:16.142Z,28.99
2018-06-30T13:06:15.931Z,28.94
2018-06-30T13:07:15.829Z,29.04
2018-06-30T13:08:15.942Z,29.34
2018-06-30T13:09:17.029Z,29.73
2018-06-30T13:10:16.840Z,29.84
2018-06-30T13:11:17.915Z,29.84
2018-06-30T13:12:16.370Z,29.25
2018-06-30T13:13:16.326Z,29.35
2018-06-30T13:14:16.254Z,29.84
2018-06-30T13:15:16.299Z,29.75
2018-06-30T13:16:15.913Z,29.34
2018-06-30T13:17:16.473Z,30.00
2018-06-30T13:18:16.001Z,30.20
2018-06-30T13:19:15.720Z,30.51
2018-06-30T13:20:16.882Z,29.94
2018-06-30T13:21:16.695Z,29.94
2018-06-30T13:22:16.292Z,29.25
2018-06-30T13:23:15.953Z,28.94
2018-06-30T13:24:45.937Z,29.22
2018-06-30T13:26:16.058Z,29.60
2018-06-30T13:27:38.385Z,29.80
2018-06-30T13:28:39.369Z,30.20
2018-06-30T13:30:24.471Z,30.13
2018-06-30T13:31:25.345Z,30.74
2018-06-30T13:32:25.243Z,29.56
2018-06-30T13:33:25.075Z,28.97
2018-06-30T13:34:24.791Z,28.75
2018-06-30T13:35:24.517Z,29.53
2018-06-30T13:36:24.846Z,29.83
2018-06-30T13:37:24.454Z,29.84
2018-06-30T13:38:24.692Z,30.13
2018-06-30T13:39:24.771Z,29.75
2018-06-30T13:40:24.584Z,30.05